M/V Oriole — WDE6982 — position and weather

sailwx.info

Track history (hours):
 
Tides and Currents Weather Stations Pressure Air Temp Water Temp Dewpoint Dewpoint Depression Visibility Wind Speed Wind Dir Waves Ship Positions

M/V Oriole

Owner: NATIVE SON INC., ST. THOMAS, VI. More information available from US FCC via Universal Licensing System and Coast Guard Vessel Documentation Center.

Last reported at 2017-Mar-01 17:19 UTC. Time now 2017-Mar-01 17:41 UTC.
Position N 18°20' W 064°50'.

Length 25 m.

Type: Passenger vessel. MMSI: 366755670.

Date/timePositionNaut miles runAvg speedWind from/ knotsBaromVisibWave heightAir tempDewpointWater temp
2017-Mar-01 17:19N 18°20' W 064°50'810.4
2017-Mar-01 16:33N 18°23' W 064°42'8 2.5
2017-Mar-01 13:17N 18°20' W 064°50'810.2
2017-Mar-01 12:29N 18°23' W 064°42'8 7.9
2017-Mar-01 11:29N 18°20' W 064°50'8 8.7
2017-Mar-01 10:33N 18°23' W 064°42'4 0.3
2017-Feb-28 22:10N 18°24' W 064°38'10 6.1
2017-Feb-28 20:33N 18°20' W 064°48'3 3.2
2017-Feb-28 19:33N 18°22' W 064°46'5 2.1
2017-Feb-28 17:10N 18°20' W 064°50'712.2
2017-Feb-28 16:33N 18°23' W 064°43'7 1.9
2017-Feb-28 13:10N 18°20' W 064°49'712.0
2017-Feb-28 12:33N 18°23' W 064°42'8 8.0
2017-Feb-28 11:31N 18°20' W 064°50'8 8.2
2017-Feb-28 10:33N 18°23' W 064°42'0 0.0
2017-Feb-27 21:33N 18°23' W 064°42'6 5.8
2017-Feb-27 20:30N 18°20' W 064°48'4 4.1
2017-Feb-27 19:33N 18°23' W 064°45'1 0.3
2017-Feb-27 16:33N 18°23' W 064°44'6 2.0
2017-Feb-27 13:19N 18°20' W 064°50'6 7.9
2017-Feb-27 12:33N 18°22' W 064°44'2 0.1
2017-Feb-25 14:31N 18°22' W 064°47'9 0.5
2017-Feb-24 22:04N 18°24' W 064°38'917.8
2017-Feb-24 21:32N 18°22' W 064°48'2 1.6
2017-Feb-24 20:28N 18°20' W 064°48'2 2.2
2017-Feb-24 19:26N 18°22' W 064°47'4 1.8
2017-Feb-24 17:23N 18°20' W 064°50'8 8.8
2017-Feb-24 16:28N 18°23' W 064°42'8 2.5
2017-Feb-24 13:11N 18°20' W 064°50'810.4
2017-Feb-24 12:24N 18°23' W 064°42'6 7.0
2017-Feb-24 11:31N 18°20' W 064°48'6 5.9
2017-Feb-24 10:28N 18°23' W 064°42'5 0.4
2017-Feb-23 22:14N 18°24' W 064°37'1317.4
2017-Feb-23 21:29N 18°20' W 064°51'3 3.0
2017-Feb-23 20:33N 18°20' W 064°48'4 4.4
2017-Feb-23 19:32N 18°23' W 064°44'6 2.5
2017-Feb-23 17:09N 18°20' W 064°50'812.8
2017-Feb-23 16:33N 18°23' W 064°42'9 2.9
2017-Feb-23 13:25N 18°20' W 064°51'7 7.6
2017-Feb-23 12:33N 18°23' W 064°45'5 4.6
2017-Feb-23 11:22N 18°20' W 064°50'8 8.1
2017-Feb-23 10:23N 18°23' W 064°42'3 0.1
2017-Feb-21 22:29N 18°23' W 064°39'9 4.6
2017-Feb-21 20:29N 18°20' W 064°48'4 4.6
2017-Feb-21 19:33N 18°23' W 064°44'6 2.4
2017-Feb-21 17:08N 18°20' W 064°50'711.6
2017-Feb-21 16:32N 18°23' W 064°43'7 2.1
2017-Feb-21 13:12N 18°20' W 064°50'711.5
2017-Feb-21 12:33N 18°23' W 064°43'8 7.3
2017-Feb-21 11:31N 18°20' W 064°50'8 8.5
2017-Feb-21 10:32N 18°23' W 064°42'4 0.3
2017-Feb-20 22:17N 18°24' W 064°38'1311.5
2017-Feb-20 21:10N 18°20' W 064°51'3 4.8
2017-Feb-20 20:31N 18°20' W 064°48'3 3.4
2017-Feb-20 19:32N 18°23' W 064°45'5 2.2
2017-Feb-20 17:26N 18°20' W 064°49'7 8.2
2017-Feb-20 16:33N 18°23' W 064°43'8 2.3
2017-Feb-20 13:09N 18°20' W 064°50'811.3
2017-Feb-20 12:25N 18°23' W 064°42'8 9.1
2017-Feb-20 11:31N 18°20' W 064°50'9 9.1
2017-Feb-20 10:31N 18°23' W 064°41'1 0.1
2017-Feb-19 22:33N 18°23' W 064°42'7 5.1
2017-Feb-19 21:08N 18°20' W 064°49'3 5.8
2017-Feb-19 20:33N 18°22' W 064°46'5 5.2
2017-Feb-19 19:32N 18°20' W 064°51'  
Track history (hours):
 
Tides and Currents Weather Stations Pressure Air Temp Water Temp Dewpoint Dewpoint Depression Visibility Wind Speed Wind Dir Waves Ship Positions

M/V Oriole

Owner: NATIVE SON INC., ST. THOMAS, VI. More information available from US FCC via Universal Licensing System and Coast Guard Vessel Documentation Center.

Last reported at 2017-Mar-01 17:19 UTC. Time now 2017-Mar-01 17:41 UTC.
Position N 18°20' W 064°50'.

Length 25 m.

Type: Passenger vessel. MMSI: 366755670.

Date/timePositionNaut miles runAvg speedWind from/ knotsBaromVisibWave heightAir tempDewpointWater temp
2017-Mar-01 17:19N 18°20' W 064°50'810.4
2017-Mar-01 16:33N 18°23' W 064°42'8 2.5
2017-Mar-01 13:17N 18°20' W 064°50'810.2
2017-Mar-01 12:29N 18°23' W 064°42'8 7.9
2017-Mar-01 11:29N 18°20' W 064°50'8 8.7
2017-Mar-01 10:33N 18°23' W 064°42'4 0.3
2017-Feb-28 22:10N 18°24' W 064°38'10 6.1
2017-Feb-28 20:33N 18°20' W 064°48'3 3.2
2017-Feb-28 19:33N 18°22' W 064°46'5 2.1
2017-Feb-28 17:10N 18°20' W 064°50'712.2
2017-Feb-28 16:33N 18°23' W 064°43'7 1.9
2017-Feb-28 13:10N 18°20' W 064°49'712.0
2017-Feb-28 12:33N 18°23' W 064°42'8 8.0
2017-Feb-28 11:31N 18°20' W 064°50'8 8.2
2017-Feb-28 10:33N 18°23' W 064°42'0 0.0
2017-Feb-27 21:33N 18°23' W 064°42'6 5.8
2017-Feb-27 20:30N 18°20' W 064°48'4 4.1
2017-Feb-27 19:33N 18°23' W 064°45'1 0.3
2017-Feb-27 16:33N 18°23' W 064°44'6 2.0
2017-Feb-27 13:19N 18°20' W 064°50'6 7.9
2017-Feb-27 12:33N 18°22' W 064°44'2 0.1
2017-Feb-25 14:31N 18°22' W 064°47'9 0.5
2017-Feb-24 22:04N 18°24' W 064°38'917.8
2017-Feb-24 21:32N 18°22' W 064°48'2 1.6
2017-Feb-24 20:28N 18°20' W 064°48'2 2.2
2017-Feb-24 19:26N 18°22' W 064°47'4 1.8
2017-Feb-24 17:23N 18°20' W 064°50'8 8.8
2017-Feb-24 16:28N 18°23' W 064°42'8 2.5
2017-Feb-24 13:11N 18°20' W 064°50'810.4
2017-Feb-24 12:24N 18°23' W 064°42'6 7.0
2017-Feb-24 11:31N 18°20' W 064°48'6 5.9
2017-Feb-24 10:28N 18°23' W 064°42'5 0.4
2017-Feb-23 22:14N 18°24' W 064°37'1317.4
2017-Feb-23 21:29N 18°20' W 064°51'3 3.0
2017-Feb-23 20:33N 18°20' W 064°48'4 4.4
2017-Feb-23 19:32N 18°23' W 064°44'6 2.5
2017-Feb-23 17:09N 18°20' W 064°50'812.8
2017-Feb-23 16:33N 18°23' W 064°42'9 2.9
2017-Feb-23 13:25N 18°20' W 064°51'7 7.6
2017-Feb-23 12:33N 18°23' W 064°45'5 4.6
2017-Feb-23 11:22N 18°20' W 064°50'8 8.1
2017-Feb-23 10:23N 18°23' W 064°42'3 0.1
2017-Feb-21 22:29N 18°23' W 064°39'9 4.6
2017-Feb-21 20:29N 18°20' W 064°48'4 4.6
2017-Feb-21 19:33N 18°23' W 064°44'6 2.4
2017-Feb-21 17:08N 18°20' W 064°50'711.6
2017-Feb-21 16:32N 18°23' W 064°43'7 2.1
2017-Feb-21 13:12N 18°20' W 064°50'711.5
2017-Feb-21 12:33N 18°23' W 064°43'8 7.3
2017-Feb-21 11:31N 18°20' W 064°50'8 8.5
2017-Feb-21 10:32N 18°23' W 064°42'4 0.3
2017-Feb-20 22:17N 18°24' W 064°38'1311.5
2017-Feb-20 21:10N 18°20' W 064°51'3 4.8
2017-Feb-20 20:31N 18°20' W 064°48'3 3.4
2017-Feb-20 19:32N 18°23' W 064°45'5 2.2
2017-Feb-20 17:26N 18°20' W 064°49'7 8.2
2017-Feb-20 16:33N 18°23' W 064°43'8 2.3
2017-Feb-20 13:09N 18°20' W 064°50'811.3
2017-Feb-20 12:25N 18°23' W 064°42'8 9.1
2017-Feb-20 11:31N 18°20' W 064°50'9 9.1
2017-Feb-20 10:31N 18°23' W 064°41'1 0.1
2017-Feb-19 22:33N 18°23' W 064°42'7 5.1
2017-Feb-19 21:08N 18°20' W 064°49'3 5.8
2017-Feb-19 20:33N 18°22' W 064°46'5 5.2
2017-Feb-19 19:32N 18°20' W 064°51'  

Dump ship's entire track history